Slatedale, Pennsylvania
Current Conditions -  °F | °C
As of 7:51 PM on Tuesday 27 Jan 2015 (Local Time) from KABE Reporting Station
Clear Clear  
Wind Chill:   Ceiling: Unl
Heat Index: 20°   Visibility: 10mi
Dew Point:   Wind: 14mph
Humidity: 52%   Direction: 330°NNW
Pressure: 29.83"   Gusts: 26mph
Location:  40.74°N, 75.66°W
Report Text: KABE 280051Z 33012G23KT 10SM CLR M07/M15 A2983 RMK AO2 SLP107 T10671150
Loading
Personal Weather Stations






























Interactive Weather Map New forecast layout! Learn more

10-Day Weather Forecast

Advertisements
Track Severe Weather on mobile